sensor_id;sensor_type;location;lat;lon;timestamp;P1;durP1;ratioP1;P2;durP2;ratioP2
10701;SDS011;5402;50.004;8.246;2023-02-18T00:00:14;3.77;;;3.00;;
10701;SDS011;5402;50.004;8.246;2023-02-18T00:02:44;3.60;;;3.30;;
10701;SDS011;5402;50.004;8.246;2023-02-18T00:05:11;4.17;;;3.13;;
10701;SDS011;5402;50.004;8.246;2023-02-18T00:07:39;3.40;;;3.10;;
10701;SDS011;5402;50.004;8.246;2023-02-18T00:10:09;4.50;;;3.70;;
10701;SDS011;5402;50.004;8.246;2023-02-18T00:12:37;4.50;;;2.83;;
10701;SDS011;5402;50.004;8.246;2023-02-18T00:15:04;5.03;;;3.47;;
10701;SDS011;5402;50.004;8.246;2023-02-18T00:17:32;3.00;;;2.70;;
10701;SDS011;5402;50.004;8.246;2023-02-18T00:19:58;4.67;;;2.90;;
10701;SDS011;5402;50.004;8.246;2023-02-18T00:22:28;3.03;;;2.70;;
10701;SDS011;5402;50.004;8.246;2023-02-18T00:24:54;2.77;;;2.47;;
10701;SDS011;5402;50.004;8.246;2023-02-18T00:27:22;3.43;;;2.60;;
10701;SDS011;5402;50.004;8.246;2023-02-18T00:29:49;3.77;;;2.70;;
10701;SDS011;5402;50.004;8.246;2023-02-18T00:32:16;3.50;;;2.37;;
10701;SDS011;5402;50.004;8.246;2023-02-18T00:34:43;2.87;;;2.47;;
10701;SDS011;5402;50.004;8.246;2023-02-18T00:37:09;2.87;;;2.57;;
10701;SDS011;5402;50.004;8.246;2023-02-18T00:39:36;2.50;;;2.20;;
10701;SDS011;5402;50.004;8.246;2023-02-18T00:42:03;2.80;;;2.50;;
10701;SDS011;5402;50.004;8.246;2023-02-18T00:44:31;5.07;;;2.63;;
10701;SDS011;5402;50.004;8.246;2023-02-18T00:46:58;3.27;;;2.50;;
10701;SDS011;5402;50.004;8.246;2023-02-18T00:49:25;3.07;;;2.50;;
10701;SDS011;5402;50.004;8.246;2023-02-18T00:51:51;2.93;;;2.33;;
10701;SDS011;5402;50.004;8.246;2023-02-18T00:54:18;2.90;;;2.00;;
10701;SDS011;5402;50.004;8.246;2023-02-18T00:56:45;2.53;;;2.13;;
10701;SDS011;5402;50.004;8.246;2023-02-18T00:59:11;2.47;;;1.80;;
10701;SDS011;5402;50.004;8.246;2023-02-18T01:01:40;1.90;;;1.60;;
10701;SDS011;5402;50.004;8.246;2023-02-18T01:04:06;2.00;;;1.67;;
10701;SDS011;5402;50.004;8.246;2023-02-18T01:06:33;1.77;;;1.50;;
10701;SDS011;5402;50.004;8.246;2023-02-18T01:09:00;1.60;;;1.40;;
10701;SDS011;5402;50.004;8.246;2023-02-18T01:11:27;2.20;;;1.30;;
10701;SDS011;5402;50.004;8.246;2023-02-18T01:13:55;1.60;;;1.40;;
10701;SDS011;5402;50.004;8.246;2023-02-18T01:16:22;1.43;;;1.33;;
10701;SDS011;5402;50.004;8.246;2023-02-18T01:18:50;1.43;;;1.33;;
10701;SDS011;5402;50.004;8.246;2023-02-18T01:21:17;1.30;;;1.20;;
10701;SDS011;5402;50.004;8.246;2023-02-18T01:23:43;3.07;;;1.43;;
10701;SDS011;5402;50.004;8.246;2023-02-18T01:26:10;1.97;;;1.50;;
10701;SDS011;5402;50.004;8.246;2023-02-18T01:28:37;1.40;;;1.30;;
10701;SDS011;5402;50.004;8.246;2023-02-18T01:31:05;1.20;;;1.10;;
10701;SDS011;5402;50.004;8.246;2023-02-18T01:33:33;1.40;;;1.13;;
10701;SDS011;5402;50.004;8.246;2023-02-18T01:36:02;1.73;;;1.30;;
10701;SDS011;5402;50.004;8.246;2023-02-18T01:38:29;1.20;;;1.07;;
10701;SDS011;5402;50.004;8.246;2023-02-18T01:40:56;1.83;;;1.00;;
10701;SDS011;5402;50.004;8.246;2023-02-18T01:43:23;1.23;;;1.00;;
10701;SDS011;5402;50.004;8.246;2023-02-18T01:45:57;1.33;;;1.00;;
10701;SDS011;5402;50.004;8.246;2023-02-18T01:48:28;1.60;;;0.90;;
10701;SDS011;5402;50.004;8.246;2023-02-18T01:50:59;0.90;;;0.90;;
10701;SDS011;5402;50.004;8.246;2023-02-18T01:53:34;0.90;;;0.90;;
10701;SDS011;5402;50.004;8.246;2023-02-18T01:56:04;2.10;;;1.20;;
10701;SDS011;5402;50.004;8.246;2023-02-18T01:58:34;0.73;;;0.73;;
10701;SDS011;5402;50.004;8.246;2023-02-18T02:01:02;0.80;;;0.70;;
10701;SDS011;5402;50.004;8.246;2023-02-18T02:03:30;0.87;;;0.87;;
10701;SDS011;5402;50.004;8.246;2023-02-18T02:05:56;0.80;;;0.80;;
10701;SDS011;5402;50.004;8.246;2023-02-18T02:08:24;0.70;;;0.70;;
10701;SDS011;5402;50.004;8.246;2023-02-18T02:10:57;0.77;;;0.70;;
10701;SDS011;5402;50.004;8.246;2023-02-18T02:13:35;0.80;;;0.80;;
10701;SDS011;5402;50.004;8.246;2023-02-18T02:16:11;1.10;;;0.80;;
10701;SDS011;5402;50.004;8.246;2023-02-18T02:18:48;0.70;;;0.70;;
10701;SDS011;5402;50.004;8.246;2023-02-18T02:21:39;0.53;;;0.53;;
10701;SDS011;5402;50.004;8.246;2023-02-18T02:24:44;1.43;;;0.80;;
10701;SDS011;5402;50.004;8.246;2023-02-18T02:27:44;0.60;;;0.60;;
10701;SDS011;5402;50.004;8.246;2023-02-18T02:33:34;0.70;;;0.70;;
10701;SDS011;5402;50.004;8.246;2023-02-18T02:36:18;0.93;;;0.80;;
10701;SDS011;5402;50.004;8.246;2023-02-18T02:38:52;0.83;;;0.83;;
10701;SDS011;5402;50.004;8.246;2023-02-18T02:41:28;0.93;;;0.93;;
10701;SDS011;5402;50.004;8.246;2023-02-18T02:44:03;0.80;;;0.80;;
10701;SDS011;5402;50.004;8.246;2023-02-18T02:46:39;1.10;;;1.00;;
10701;SDS011;5402;50.004;8.246;2023-02-18T02:49:12;1.00;;;0.90;;
10701;SDS011;5402;50.004;8.246;2023-02-18T02:51:49;1.53;;;1.10;;
10701;SDS011;5402;50.004;8.246;2023-02-18T02:54:23;1.50;;;0.90;;
10701;SDS011;5402;50.004;8.246;2023-02-18T02:57:02;0.97;;;0.70;;
10701;SDS011;5402;50.004;8.246;2023-02-18T02:59:30;0.70;;;0.70;;
10701;SDS011;5402;50.004;8.246;2023-02-18T03:02:01;1.50;;;1.10;;
10701;SDS011;5402;50.004;8.246;2023-02-18T03:04:46;1.03;;;0.90;;
10701;SDS011;5402;50.004;8.246;2023-02-18T03:13:16;0.97;;;0.97;;
10701;SDS011;5402;50.004;8.246;2023-02-18T03:15:53;0.80;;;0.80;;
10701;SDS011;5402;50.004;8.246;2023-02-18T03:18:23;2.30;;;0.90;;
10701;SDS011;5402;50.004;8.246;2023-02-18T03:20:57;1.07;;;1.00;;
10701;SDS011;5402;50.004;8.246;2023-02-18T03:23:31;1.13;;;1.03;;
10701;SDS011;5402;50.004;8.246;2023-02-18T03:26:03;1.20;;;1.10;;
10701;SDS011;5402;50.004;8.246;2023-02-18T03:28:33;1.00;;;0.90;;
10701;SDS011;5402;50.004;8.246;2023-02-18T03:31:02;1.30;;;1.00;;
10701;SDS011;5402;50.004;8.246;2023-02-18T03:33:34;1.10;;;1.00;;
10701;SDS011;5402;50.004;8.246;2023-02-18T03:36:05;0.93;;;0.93;;
10701;SDS011;5402;50.004;8.246;2023-02-18T03:38:34;1.20;;;1.10;;
10701;SDS011;5402;50.004;8.246;2023-02-18T03:41:05;1.03;;;1.00;;
10701;SDS011;5402;50.004;8.246;2023-02-18T03:43:31;1.30;;;1.20;;
10701;SDS011;5402;50.004;8.246;2023-02-18T03:45:59;1.10;;;1.00;;
10701;SDS011;5402;50.004;8.246;2023-02-18T03:48:26;1.57;;;1.10;;
10701;SDS011;5402;50.004;8.246;2023-02-18T03:50:53;1.03;;;0.93;;
10701;SDS011;5402;50.004;8.246;2023-02-18T03:53:19;1.10;;;1.00;;
10701;SDS011;5402;50.004;8.246;2023-02-18T03:55:48;1.30;;;1.20;;
10701;SDS011;5402;50.004;8.246;2023-02-18T03:58:15;0.90;;;0.90;;
10701;SDS011;5402;50.004;8.246;2023-02-18T04:00:41;0.80;;;0.80;;
10701;SDS011;5402;50.004;8.246;2023-02-18T04:03:08;1.13;;;0.83;;
10701;SDS011;5402;50.004;8.246;2023-02-18T04:05:35;0.77;;;0.77;;
10701;SDS011;5402;50.004;8.246;2023-02-18T04:08:01;0.70;;;0.70;;
10701;SDS011;5402;50.004;8.246;2023-02-18T04:10:29;0.77;;;0.77;;
10701;SDS011;5402;50.004;8.246;2023-02-18T04:12:57;0.97;;;0.73;;
10701;SDS011;5402;50.004;8.246;2023-02-18T04:15:24;0.93;;;0.90;;
10701;SDS011;5402;50.004;8.246;2023-02-18T04:17:51;1.03;;;0.93;;
10701;SDS011;5402;50.004;8.246;2023-02-18T04:20:18;1.47;;;0.97;;
10701;SDS011;5402;50.004;8.246;2023-02-18T04:22:46;2.30;;;0.90;;
10701;SDS011;5402;50.004;8.246;2023-02-18T04:25:13;1.53;;;0.90;;
10701;SDS011;5402;50.004;8.246;2023-02-18T04:27:39;0.90;;;0.90;;
10701;SDS011;5402;50.004;8.246;2023-02-18T04:30:08;1.30;;;1.10;;
10701;SDS011;5402;50.004;8.246;2023-02-18T04:32:35;1.87;;;1.77;;
10701;SDS011;5402;50.004;8.246;2023-02-18T04:35:02;1.10;;;1.00;;
10701;SDS011;5402;50.004;8.246;2023-02-18T04:37:29;1.20;;;0.87;;
10701;SDS011;5402;50.004;8.246;2023-02-18T04:39:56;1.13;;;0.60;;
10701;SDS011;5402;50.004;8.246;2023-02-18T04:42:23;0.57;;;0.57;;
10701;SDS011;5402;50.004;8.246;2023-02-18T04:44:50;0.70;;;0.70;;
10701;SDS011;5402;50.004;8.246;2023-02-18T04:47:20;0.80;;;0.80;;
10701;SDS011;5402;50.004;8.246;2023-02-18T04:49:47;0.90;;;0.60;;
10701;SDS011;5402;50.004;8.246;2023-02-18T04:52:15;0.50;;;0.50;;
10701;SDS011;5402;50.004;8.246;2023-02-18T04:54:42;0.70;;;0.70;;
10701;SDS011;5402;50.004;8.246;2023-02-18T04:57:09;0.70;;;0.70;;
10701;SDS011;5402;50.004;8.246;2023-02-18T04:59:36;0.70;;;0.70;;
10701;SDS011;5402;50.004;8.246;2023-02-18T05:02:03;0.90;;;0.90;;
10701;SDS011;5402;50.004;8.246;2023-02-18T05:04:31;0.63;;;0.63;;
10701;SDS011;5402;50.004;8.246;2023-02-18T05:06:58;3.50;;;0.80;;
10701;SDS011;5402;50.004;8.246;2023-02-18T05:09:25;0.80;;;0.80;;
10701;SDS011;5402;50.004;8.246;2023-02-18T05:11:52;1.00;;;0.90;;
10701;SDS011;5402;50.004;8.246;2023-02-18T05:14:19;0.60;;;0.60;;
10701;SDS011;5402;50.004;8.246;2023-02-18T05:16:48;0.80;;;0.80;;
10701;SDS011;5402;50.004;8.246;2023-02-18T05:19:15;0.83;;;0.70;;
10701;SDS011;5402;50.004;8.246;2023-02-18T05:21:43;2.00;;;0.73;;
10701;SDS011;5402;50.004;8.246;2023-02-18T05:24:10;0.50;;;0.50;;
10701;SDS011;5402;50.004;8.246;2023-02-18T05:26:37;0.93;;;0.73;;
10701;SDS011;5402;50.004;8.246;2023-02-18T05:29:04;0.73;;;0.73;;
10701;SDS011;5402;50.004;8.246;2023-02-18T05:31:31;0.60;;;0.60;;
10701;SDS011;5402;50.004;8.246;2023-02-18T05:33:57;0.80;;;0.80;;
10701;SDS011;5402;50.004;8.246;2023-02-18T05:36:24;0.67;;;0.67;;
10701;SDS011;5402;50.004;8.246;2023-02-18T05:38:52;1.50;;;0.80;;
10701;SDS011;5402;50.004;8.246;2023-02-18T05:41:19;1.17;;;0.63;;
10701;SDS011;5402;50.004;8.246;2023-02-18T05:43:46;1.13;;;0.90;;
10701;SDS011;5402;50.004;8.246;2023-02-18T05:46:29;1.00;;;0.80;;
10701;SDS011;5402;50.004;8.246;2023-02-18T05:48:56;0.90;;;0.80;;
10701;SDS011;5402;50.004;8.246;2023-02-18T05:51:23;0.97;;;0.90;;
10701;SDS011;5402;50.004;8.246;2023-02-18T05:53:49;1.20;;;0.90;;
10701;SDS011;5402;50.004;8.246;2023-02-18T05:56:17;0.73;;;0.70;;
10701;SDS011;5402;50.004;8.246;2023-02-18T05:58:44;1.20;;;1.10;;
10701;SDS011;5402;50.004;8.246;2023-02-18T06:01:11;1.47;;;1.23;;
10701;SDS011;5402;50.004;8.246;2023-02-18T06:03:38;1.33;;;1.23;;
10701;SDS011;5402;50.004;8.246;2023-02-18T06:06:05;2.17;;;1.30;;
10701;SDS011;5402;50.004;8.246;2023-02-18T06:08:32;1.10;;;1.00;;
10701;SDS011;5402;50.004;8.246;2023-02-18T06:10:59;1.30;;;1.20;;
10701;SDS011;5402;50.004;8.246;2023-02-18T06:13:27;2.27;;;1.20;;
10701;SDS011;5402;50.004;8.246;2023-02-18T06:15:54;1.40;;;1.30;;
10701;SDS011;5402;50.004;8.246;2023-02-18T06:18:20;2.33;;;1.40;;
10701;SDS011;5402;50.004;8.246;2023-02-18T06:20:49;1.40;;;1.30;;
10701;SDS011;5402;50.004;8.246;2023-02-18T06:23:15;1.70;;;1.60;;
10701;SDS011;5402;50.004;8.246;2023-02-18T06:25:42;1.70;;;1.53;;
10701;SDS011;5402;50.004;8.246;2023-02-18T06:28:09;2.17;;;1.73;;
10701;SDS011;5402;50.004;8.246;2023-02-18T06:30:37;2.53;;;2.00;;
10701;SDS011;5402;50.004;8.246;2023-02-18T06:33:04;2.00;;;1.63;;
10701;SDS011;5402;50.004;8.246;2023-02-18T06:35:30;3.50;;;2.43;;
10701;SDS011;5402;50.004;8.246;2023-02-18T06:37:57;2.87;;;2.03;;
10701;SDS011;5402;50.004;8.246;2023-02-18T06:40:24;2.70;;;1.97;;
10701;SDS011;5402;50.004;8.246;2023-02-18T06:42:51;2.60;;;1.70;;
10701;SDS011;5402;50.004;8.246;2023-02-18T06:45:18;2.60;;;2.40;;
10701;SDS011;5402;50.004;8.246;2023-02-18T06:47:48;2.67;;;2.37;;
10701;SDS011;5402;50.004;8.246;2023-02-18T06:50:14;3.20;;;2.20;;
10701;SDS011;5402;50.004;8.246;2023-02-18T06:52:43;2.43;;;2.03;;
10701;SDS011;5402;50.004;8.246;2023-02-18T06:55:10;2.47;;;2.00;;
10701;SDS011;5402;50.004;8.246;2023-02-18T06:57:37;3.33;;;1.93;;
10701;SDS011;5402;50.004;8.246;2023-02-18T07:00:04;2.33;;;1.80;;
10701;SDS011;5402;50.004;8.246;2023-02-18T07:02:32;1.60;;;1.40;;
10701;SDS011;5402;50.004;8.246;2023-02-18T07:05:00;1.73;;;1.60;;
10701;SDS011;5402;50.004;8.246;2023-02-18T07:07:27;1.80;;;1.70;;
10701;SDS011;5402;50.004;8.246;2023-02-18T07:09:53;2.10;;;1.63;;
10701;SDS011;5402;50.004;8.246;2023-02-18T07:12:20;1.70;;;1.60;;
10701;SDS011;5402;50.004;8.246;2023-02-18T07:14:47;3.93;;;2.03;;
10701;SDS011;5402;50.004;8.246;2023-02-18T07:17:13;1.63;;;1.53;;
10701;SDS011;5402;50.004;8.246;2023-02-18T07:19:40;2.20;;;1.80;;
10701;SDS011;5402;50.004;8.246;2023-02-18T07:22:08;2.03;;;1.83;;
10701;SDS011;5402;50.004;8.246;2023-02-18T07:24:35;3.87;;;2.23;;
10701;SDS011;5402;50.004;8.246;2023-02-18T07:27:02;2.30;;;2.10;;
10701;SDS011;5402;50.004;8.246;2023-02-18T07:29:28;2.50;;;2.20;;
10701;SDS011;5402;50.004;8.246;2023-02-18T07:31:55;2.40;;;2.20;;
10701;SDS011;5402;50.004;8.246;2023-02-18T07:34:22;2.53;;;2.17;;
10701;SDS011;5402;50.004;8.246;2023-02-18T07:36:49;2.23;;;1.90;;
10701;SDS011;5402;50.004;8.246;2023-02-18T07:39:18;2.20;;;1.83;;
10701;SDS011;5402;50.004;8.246;2023-02-18T07:41:45;2.90;;;1.87;;
10701;SDS011;5402;50.004;8.246;2023-02-18T07:44:12;4.07;;;2.33;;
10701;SDS011;5402;50.004;8.246;2023-02-18T07:46:39;4.87;;;3.10;;
10701;SDS011;5402;50.004;8.246;2023-02-18T07:49:06;3.67;;;2.37;;
10701;SDS011;5402;50.004;8.246;2023-02-18T07:51:32;2.23;;;2.03;;
10701;SDS011;5402;50.004;8.246;2023-02-18T07:53:59;2.73;;;2.30;;
10701;SDS011;5402;50.004;8.246;2023-02-18T07:56:27;2.53;;;2.33;;
10701;SDS011;5402;50.004;8.246;2023-02-18T07:58:54;4.03;;;2.97;;
10701;SDS011;5402;50.004;8.246;2023-02-18T08:01:20;2.90;;;2.60;;
10701;SDS011;5402;50.004;8.246;2023-02-18T08:03:47;7.53;;;4.50;;
10701;SDS011;5402;50.004;8.246;2023-02-18T08:06:18;4.73;;;3.80;;
10701;SDS011;5402;50.004;8.246;2023-02-18T08:08:47;7.50;;;4.67;;
10701;SDS011;5402;50.004;8.246;2023-02-18T08:11:13;3.57;;;3.20;;
10701;SDS011;5402;50.004;8.246;2023-02-18T08:13:41;5.07;;;3.30;;
10701;SDS011;5402;50.004;8.246;2023-02-18T08:16:08;4.50;;;3.03;;
10701;SDS011;5402;50.004;8.246;2023-02-18T08:18:35;5.10;;;4.00;;
10701;SDS011;5402;50.004;8.246;2023-02-18T08:21:02;3.80;;;3.40;;
10701;SDS011;5402;50.004;8.246;2023-02-18T08:23:29;3.97;;;2.80;;
10701;SDS011;5402;50.004;8.246;2023-02-18T08:25:55;4.50;;;2.90;;
10701;SDS011;5402;50.004;8.246;2023-02-18T08:28:22;3.00;;;2.70;;
10701;SDS011;5402;50.004;8.246;2023-02-18T08:30:52;3.10;;;2.20;;
10701;SDS011;5402;50.004;8.246;2023-02-18T08:33:19;3.47;;;2.20;;
10701;SDS011;5402;50.004;8.246;2023-02-18T08:35:48;2.43;;;2.10;;
10701;SDS011;5402;50.004;8.246;2023-02-18T08:38:16;3.03;;;1.83;;
10701;SDS011;5402;50.004;8.246;2023-02-18T08:40:43;2.40;;;2.20;;
10701;SDS011;5402;50.004;8.246;2023-02-18T08:43:10;3.43;;;2.60;;
10701;SDS011;5402;50.004;8.246;2023-02-18T08:45:37;4.83;;;3.30;;
10701;SDS011;5402;50.004;8.246;2023-02-18T08:48:06;2.97;;;2.50;;
10701;SDS011;5402;50.004;8.246;2023-02-18T08:50:33;2.40;;;2.10;;
10701;SDS011;5402;50.004;8.246;2023-02-18T08:53:00;2.17;;;1.97;;
10701;SDS011;5402;50.004;8.246;2023-02-18T08:55:27;2.60;;;1.90;;
10701;SDS011;5402;50.004;8.246;2023-02-18T08:57:54;2.13;;;1.70;;
10701;SDS011;5402;50.004;8.246;2023-02-18T09:00:21;2.97;;;1.97;;
10701;SDS011;5402;50.004;8.246;2023-02-18T09:02:48;1.80;;;1.40;;
10701;SDS011;5402;50.004;8.246;2023-02-18T09:05:16;2.87;;;1.97;;
10701;SDS011;5402;50.004;8.246;2023-02-18T09:07:43;2.47;;;2.10;;
10701;SDS011;5402;50.004;8.246;2023-02-18T09:10:10;2.30;;;2.03;;
10701;SDS011;5402;50.004;8.246;2023-02-18T09:12:36;1.60;;;1.50;;
10701;SDS011;5402;50.004;8.246;2023-02-18T09:15:03;2.27;;;1.33;;
10701;SDS011;5402;50.004;8.246;2023-02-18T09:17:31;1.50;;;1.37;;
10701;SDS011;5402;50.004;8.246;2023-02-18T09:19:59;1.50;;;1.40;;
10701;SDS011;5402;50.004;8.246;2023-02-18T09:22:27;2.20;;;1.60;;
10701;SDS011;5402;50.004;8.246;2023-02-18T09:24:54;1.57;;;1.40;;
10701;SDS011;5402;50.004;8.246;2023-02-18T09:27:21;2.23;;;1.20;;
10701;SDS011;5402;50.004;8.246;2023-02-18T09:29:48;1.20;;;1.10;;
10701;SDS011;5402;50.004;8.246;2023-02-18T09:32:14;1.43;;;1.10;;
10701;SDS011;5402;50.004;8.246;2023-02-18T09:34:42;1.87;;;1.23;;
10701;SDS011;5402;50.004;8.246;2023-02-18T09:37:09;1.93;;;1.00;;
10701;SDS011;5402;50.004;8.246;2023-02-18T09:39:37;1.10;;;1.00;;
10701;SDS011;5402;50.004;8.246;2023-02-18T09:42:04;1.13;;;0.90;;
10701;SDS011;5402;50.004;8.246;2023-02-18T09:44:37;0.80;;;0.80;;
10701;SDS011;5402;50.004;8.246;2023-02-18T09:47:09;0.70;;;0.70;;
10701;SDS011;5402;50.004;8.246;2023-02-18T09:49:42;0.70;;;0.70;;
10701;SDS011;5402;50.004;8.246;2023-02-18T09:52:12;0.80;;;0.80;;
10701;SDS011;5402;50.004;8.246;2023-02-18T09:54:42;0.80;;;0.80;;
10701;SDS011;5402;50.004;8.246;2023-02-18T09:57:14;0.83;;;0.83;;
10701;SDS011;5402;50.004;8.246;2023-02-18T09:59:47;1.30;;;0.90;;
10701;SDS011;5402;50.004;8.246;2023-02-18T10:02:22;0.80;;;0.80;;
10701;SDS011;5402;50.004;8.246;2023-02-18T10:04:50;1.77;;;0.90;;
10701;SDS011;5402;50.004;8.246;2023-02-18T10:07:18;0.93;;;0.40;;
10701;SDS011;5402;50.004;8.246;2023-02-18T10:09:51;0.67;;;0.67;;
10701;SDS011;5402;50.004;8.246;2023-02-18T10:12:20;1.60;;;0.80;;
10701;SDS011;5402;50.004;8.246;2023-02-18T10:14:49;1.63;;;0.80;;
10701;SDS011;5402;50.004;8.246;2023-02-18T10:17:18;0.60;;;0.60;;
10701;SDS011;5402;50.004;8.246;2023-02-18T10:19:47;1.43;;;0.80;;
10701;SDS011;5402;50.004;8.246;2023-02-18T10:22:15;1.03;;;0.70;;
10701;SDS011;5402;50.004;8.246;2023-02-18T10:24:44;0.50;;;0.50;;
10701;SDS011;5402;50.004;8.246;2023-02-18T10:27:16;0.60;;;0.60;;
10701;SDS011;5402;50.004;8.246;2023-02-18T10:29:46;2.00;;;0.63;;
10701;SDS011;5402;50.004;8.246;2023-02-18T10:32:15;0.70;;;0.70;;
10701;SDS011;5402;50.004;8.246;2023-02-18T10:34:47;0.70;;;0.70;;
10701;SDS011;5402;50.004;8.246;2023-02-18T10:37:24;1.90;;;0.70;;
10701;SDS011;5402;50.004;8.246;2023-02-18T10:40:05;0.77;;;0.73;;
10701;SDS011;5402;50.004;8.246;2023-02-18T10:42:42;1.27;;;0.67;;
10701;SDS011;5402;50.004;8.246;2023-02-18T10:45:23;0.77;;;0.77;;
10701;SDS011;5402;50.004;8.246;2023-02-18T10:48:01;0.90;;;0.83;;
10701;SDS011;5402;50.004;8.246;2023-02-18T10:50:39;1.73;;;0.90;;
10701;SDS011;5402;50.004;8.246;2023-02-18T10:53:09;1.73;;;0.73;;
10701;SDS011;5402;50.004;8.246;2023-02-18T10:55:39;0.80;;;0.80;;
10701;SDS011;5402;50.004;8.246;2023-02-18T11:00:52;0.70;;;0.70;;
10701;SDS011;5402;50.004;8.246;2023-02-18T11:03:20;1.67;;;0.70;;
10701;SDS011;5402;50.004;8.246;2023-02-18T11:05:49;1.20;;;0.90;;
10701;SDS011;5402;50.004;8.246;2023-02-18T11:08:19;3.20;;;0.93;;
10701;SDS011;5402;50.004;8.246;2023-02-18T11:10:49;0.93;;;0.77;;
10701;SDS011;5402;50.004;8.246;2023-02-18T11:13:22;1.17;;;0.90;;
10701;SDS011;5402;50.004;8.246;2023-02-18T11:15:57;1.70;;;1.07;;
10701;SDS011;5402;50.004;8.246;2023-02-18T11:18:27;1.30;;;1.00;;
10701;SDS011;5402;50.004;8.246;2023-02-18T11:21:02;3.83;;;1.10;;
10701;SDS011;5402;50.004;8.246;2023-02-18T11:23:30;1.40;;;1.00;;
10701;SDS011;5402;50.004;8.246;2023-02-18T11:26:10;1.17;;;0.90;;
10701;SDS011;5402;50.004;8.246;2023-02-18T11:28:41;4.40;;;1.30;;
10701;SDS011;5402;50.004;8.246;2023-02-18T11:31:10;1.40;;;1.03;;
10701;SDS011;5402;50.004;8.246;2023-02-18T11:33:46;1.70;;;0.93;;
10701;SDS011;5402;50.004;8.246;2023-02-18T11:36:16;2.23;;;1.10;;
10701;SDS011;5402;50.004;8.246;2023-02-18T11:38:49;1.47;;;1.30;;
10701;SDS011;5402;50.004;8.246;2023-02-18T11:41:18;1.60;;;0.87;;
10701;SDS011;5402;50.004;8.246;2023-02-18T11:43:48;1.20;;;1.10;;
10701;SDS011;5402;50.004;8.246;2023-02-18T11:46:17;2.80;;;1.00;;
10701;SDS011;5402;50.004;8.246;2023-02-18T11:48:45;1.00;;;1.00;;
10701;SDS011;5402;50.004;8.246;2023-02-18T11:51:15;3.27;;;1.50;;
10701;SDS011;5402;50.004;8.246;2023-02-18T11:53:54;1.47;;;1.20;;
10701;SDS011;5402;50.004;8.246;2023-02-18T11:56:24;3.50;;;1.20;;
10701;SDS011;5402;50.004;8.246;2023-02-18T11:58:54;2.17;;;1.10;;
10701;SDS011;5402;50.004;8.246;2023-02-18T12:01:31;1.83;;;1.20;;
10701;SDS011;5402;50.004;8.246;2023-02-18T12:04:07;1.43;;;1.23;;
10701;SDS011;5402;50.004;8.246;2023-02-18T12:06:38;1.40;;;1.13;;
10701;SDS011;5402;50.004;8.246;2023-02-18T12:09:14;1.50;;;1.30;;
10701;SDS011;5402;50.004;8.246;2023-02-18T12:11:48;2.87;;;1.27;;
10701;SDS011;5402;50.004;8.246;2023-02-18T12:14:20;1.70;;;1.60;;
10701;SDS011;5402;50.004;8.246;2023-02-18T12:16:56;1.30;;;1.00;;
10701;SDS011;5402;50.004;8.246;2023-02-18T12:19:44;3.33;;;1.37;;
10701;SDS011;5402;50.004;8.246;2023-02-18T12:22:25;2.33;;;1.23;;
10701;SDS011;5402;50.004;8.246;2023-02-18T12:25:02;4.13;;;1.30;;
10701;SDS011;5402;50.004;8.246;2023-02-18T12:27:48;2.63;;;1.40;;
10701;SDS011;5402;50.004;8.246;2023-02-18T12:30:28;1.47;;;1.30;;
10701;SDS011;5402;50.004;8.246;2023-02-18T12:33:07;3.30;;;1.30;;
10701;SDS011;5402;50.004;8.246;2023-02-18T12:35:47;1.33;;;1.10;;
10701;SDS011;5402;50.004;8.246;2023-02-18T12:38:30;1.90;;;1.30;;
10701;SDS011;5402;50.004;8.246;2023-02-18T12:41:42;1.57;;;1.20;;
10701;SDS011;5402;50.004;8.246;2023-02-18T12:44:23;1.97;;;1.27;;
10701;SDS011;5402;50.004;8.246;2023-02-18T12:47:05;1.47;;;1.10;;
10701;SDS011;5402;50.004;8.246;2023-02-18T12:50:00;1.83;;;1.23;;
10701;SDS011;5402;50.004;8.246;2023-02-18T12:52:41;1.53;;;1.20;;
10701;SDS011;5402;50.004;8.246;2023-02-18T12:55:22;3.07;;;1.17;;
10701;SDS011;5402;50.004;8.246;2023-02-18T12:57:57;1.83;;;1.33;;
10701;SDS011;5402;50.004;8.246;2023-02-18T13:03:48;3.10;;;1.50;;
10701;SDS011;5402;50.004;8.246;2023-02-18T13:06:46;1.70;;;1.30;;
10701;SDS011;5402;50.004;8.246;2023-02-18T13:09:31;2.60;;;1.50;;
10701;SDS011;5402;50.004;8.246;2023-02-18T13:12:10;4.87;;;1.90;;
10701;SDS011;5402;50.004;8.246;2023-02-18T13:14:42;1.37;;;1.23;;
10701;SDS011;5402;50.004;8.246;2023-02-18T13:17:15;3.87;;;1.77;;
10701;SDS011;5402;50.004;8.246;2023-02-18T13:19:46;3.33;;;1.30;;
10701;SDS011;5402;50.004;8.246;2023-02-18T13:22:17;2.27;;;1.53;;
10701;SDS011;5402;50.004;8.246;2023-02-18T13:24:46;2.50;;;1.33;;
10701;SDS011;5402;50.004;8.246;2023-02-18T13:27:16;2.93;;;1.60;;
10701;SDS011;5402;50.004;8.246;2023-02-18T13:29:47;3.23;;;1.70;;
10701;SDS011;5402;50.004;8.246;2023-02-18T13:32:20;2.60;;;1.70;;
10701;SDS011;5402;50.004;8.246;2023-02-18T13:34:56;2.20;;;1.43;;
10701;SDS011;5402;50.004;8.246;2023-02-18T13:37:30;4.70;;;1.80;;
10701;SDS011;5402;50.004;8.246;2023-02-18T13:40:08;5.20;;;1.70;;
10701;SDS011;5402;50.004;8.246;2023-02-18T13:42:42;2.30;;;1.60;;
10701;SDS011;5402;50.004;8.246;2023-02-18T13:47:57;2.80;;;1.83;;
10701;SDS011;5402;50.004;8.246;2023-02-18T13:50:27;4.50;;;1.97;;
10701;SDS011;5402;50.004;8.246;2023-02-18T13:53:13;2.40;;;1.50;;
10701;SDS011;5402;50.004;8.246;2023-02-18T13:55:50;3.10;;;1.90;;
10701;SDS011;5402;50.004;8.246;2023-02-18T13:58:20;4.57;;;1.93;;
10701;SDS011;5402;50.004;8.246;2023-02-18T14:00:50;5.63;;;1.60;;
10701;SDS011;5402;50.004;8.246;2023-02-18T14:03:31;3.07;;;1.63;;
10701;SDS011;5402;50.004;8.246;2023-02-18T14:06:16;2.47;;;1.47;;
10701;SDS011;5402;50.004;8.246;2023-02-18T14:08:44;3.80;;;1.93;;
10701;SDS011;5402;50.004;8.246;2023-02-18T14:11:29;2.83;;;1.70;;
10701;SDS011;5402;50.004;8.246;2023-02-18T14:17:12;1.90;;;1.57;;
10701;SDS011;5402;50.004;8.246;2023-02-18T14:19:53;1.67;;;1.40;;
10701;SDS011;5402;50.004;8.246;2023-02-18T14:22:24;3.20;;;1.40;;
10701;SDS011;5402;50.004;8.246;2023-02-18T14:24:54;3.20;;;1.50;;
10701;SDS011;5402;50.004;8.246;2023-02-18T14:27:25;2.70;;;1.77;;
10701;SDS011;5402;50.004;8.246;2023-02-18T14:29:52;1.50;;;1.40;;
10701;SDS011;5402;50.004;8.246;2023-02-18T14:32:19;3.87;;;1.60;;
10701;SDS011;5402;50.004;8.246;2023-02-18T14:35:03;2.40;;;1.47;;
10701;SDS011;5402;50.004;8.246;2023-02-18T14:40:54;1.90;;;1.60;;
10701;SDS011;5402;50.004;8.246;2023-02-18T14:43:45;3.57;;;1.70;;
10701;SDS011;5402;50.004;8.246;2023-02-18T14:46:24;2.47;;;1.40;;
10701;SDS011;5402;50.004;8.246;2023-02-18T14:49:07;2.37;;;1.40;;
10701;SDS011;5402;50.004;8.246;2023-02-18T14:51:57;2.83;;;1.43;;
10701;SDS011;5402;50.004;8.246;2023-02-18T14:54:26;1.87;;;1.40;;
10701;SDS011;5402;50.004;8.246;2023-02-18T14:56:56;6.13;;;1.43;;
10701;SDS011;5402;50.004;8.246;2023-02-18T14:59:26;3.03;;;1.47;;
10701;SDS011;5402;50.004;8.246;2023-02-18T15:01:55;3.20;;;1.50;;
10701;SDS011;5402;50.004;8.246;2023-02-18T15:04:22;3.77;;;1.50;;
10701;SDS011;5402;50.004;8.246;2023-02-18T15:06:57;1.97;;;1.40;;
10701;SDS011;5402;50.004;8.246;2023-02-18T15:09:24;1.57;;;1.43;;
10701;SDS011;5402;50.004;8.246;2023-02-18T15:11:54;1.73;;;1.33;;
10701;SDS011;5402;50.004;8.246;2023-02-18T15:14:25;2.53;;;1.30;;
10701;SDS011;5402;50.004;8.246;2023-02-18T15:16:54;1.73;;;1.30;;
10701;SDS011;5402;50.004;8.246;2023-02-18T15:19:23;1.13;;;1.07;;
10701;SDS011;5402;50.004;8.246;2023-02-18T15:21:52;1.90;;;1.13;;
10701;SDS011;5402;50.004;8.246;2023-02-18T15:24:25;1.30;;;1.20;;
10701;SDS011;5402;50.004;8.246;2023-02-18T15:26:58;2.87;;;1.47;;
10701;SDS011;5402;50.004;8.246;2023-02-18T15:29:27;1.00;;;1.00;;
10701;SDS011;5402;50.004;8.246;2023-02-18T15:31:55;3.47;;;1.30;;
10701;SDS011;5402;50.004;8.246;2023-02-18T15:34:30;1.20;;;1.10;;
10701;SDS011;5402;50.004;8.246;2023-02-18T15:37:01;1.30;;;1.20;;
10701;SDS011;5402;50.004;8.246;2023-02-18T15:39:29;2.30;;;1.30;;
10701;SDS011;5402;50.004;8.246;2023-02-18T15:41:59;2.07;;;1.40;;
10701;SDS011;5402;50.004;8.246;2023-02-18T15:44:29;2.87;;;1.67;;